Time;durP1;ratioP1;P1;durP2;ratioP2;P2;SDS_P1;SDS_P2;PMS_P1;PMS_P2;Temp;Humidity;BMP_temperature;BMP_pressure;BME280_temperature;BME280_humidity;BME280_pressure;Samples;Min_cycle;Max_cycle;Signal;HPM_P1;HPM_P2
2023/03/20 00:02:01;;;;;;;;;23.25;21.50;;;;;;;;5055366;28;46190;-58
2023/03/20 00:04:28;;;;;;;;;19.50;19.50;;;;;;;;5055947;28;45503;-59
2023/03/20 00:06:53;;;;;;;;;25.00;23.25;;;;;;;;5073772;27;45449;-58
2023/03/20 00:09:18;;;;;;;;;20.75;20.75;;;;;;;;5058219;28;45487;-59
2023/03/20 00:11:47;;;;;;;;;20.67;20.67;;;;;;;;5063119;27;45600;-58
2023/03/20 00:14:14;;;;;;;;;18.75;18.00;;;;;;;;5076265;27;45655;-58
2023/03/20 00:16:40;;;;;;;;;20.00;18.75;;;;;;;;5076707;28;45561;-58
2023/03/20 00:19:12;;;;;;;;;18.75;18.75;;;;;;;;5075979;27;45593;-59
2023/03/20 00:21:38;;;;;;;;;21.50;19.50;;;;;;;;5069748;27;46313;-58
2023/03/20 00:24:03;;;;;;;;;21.50;21.50;;;;;;;;5060195;27;45493;-58
2023/03/20 00:26:32;;;;;;;;;22.75;19.25;;;;;;;;5076475;27;45796;-58
2023/03/20 00:28:58;;;;;;;;;18.75;18.75;;;;;;;;5076340;27;45603;-59
2023/03/20 00:31:25;;;;;;;;;19.25;19.25;;;;;;;;5071408;27;45624;-58
2023/03/20 00:33:51;;;;;;;;;18.25;18.00;;;;;;;;5070976;27;45479;-58
2023/03/20 00:36:16;;;;;;;;;15.00;15.00;;;;;;;;5057857;28;45610;-58
2023/03/20 00:38:42;;;;;;;;;20.00;19.00;;;;;;;;5064002;27;45457;-58
2023/03/20 00:41:30;;;;;;;;;28.00;22.50;;;;;;;;5073476;27;46062;-58
2023/03/20 00:43:58;;;;;;;;;19.25;19.25;;;;;;;;5061859;27;45447;-57
2023/03/20 00:46:24;;;;;;;;;18.75;18.75;;;;;;;;5075404;27;45540;-59
2023/03/20 00:48:49;;;;;;;;;19.50;18.50;;;;;;;;5057899;28;45484;-58
2023/03/20 00:51:15;;;;;;;;;21.50;19.25;;;;;;;;5059756;28;45520;-58
2023/03/20 00:53:40;;;;;;;;;20.00;19.50;;;;;;;;5066236;27;46110;-58
2023/03/20 00:56:05;;;;;;;;;19.75;18.75;;;;;;;;5075927;27;45576;-58
2023/03/20 00:58:30;;;;;;;;;21.50;18.25;;;;;;;;5075620;27;45510;-58
2023/03/20 01:00:56;;;;;;;;;19.00;19.00;;;;;;;;5061254;28;45543;-59
2023/03/20 01:03:23;;;;;;;;;20.00;20.00;;;;;;;;5055845;28;45616;-58
2023/03/20 01:05:49;;;;;;;;;23.50;20.75;;;;;;;;5072511;27;45526;-57
2023/03/20 01:08:16;;;;;;;;;23.25;21.50;;;;;;;;5075754;27;45547;-56
2023/03/20 01:10:42;;;;;;;;;23.25;23.25;;;;;;;;5070801;28;45469;-59
2023/03/20 01:13:26;;;;;;;;;19.75;19.25;;;;;;;;5070209;27;45473;-59
2023/03/20 01:15:53;;;;;;;;;20.00;19.25;;;;;;;;5075660;27;45534;-59
2023/03/20 01:18:19;;;;;;;;;23.25;19.50;;;;;;;;5075705;27;45486;-57
2023/03/20 01:20:45;;;;;;;;;21.25;20.00;;;;;;;;5075230;27;45656;-59
2023/03/20 01:23:10;;;;;;;;;19.50;18.00;;;;;;;;5068498;27;45473;-58
2023/03/20 01:25:36;;;;;;;;;19.25;19.25;;;;;;;;5075378;27;45593;-59
2023/03/20 01:28:02;;;;;;;;;21.50;21.25;;;;;;;;5075473;27;45490;-59
2023/03/20 01:30:29;;;;;;;;;21.25;20.00;;;;;;;;5064365;28;45894;-58
2023/03/20 01:32:55;;;;;;;;;17.50;17.50;;;;;;;;5066967;28;45485;-59
2023/03/20 01:35:21;;;;;;;;;20.00;19.00;;;;;;;;5070197;28;45558;-57
2023/03/20 01:37:47;;;;;;;;;19.00;18.75;;;;;;;;5075203;27;45474;-57
2023/03/20 01:40:22;;;;;;;;;17.25;16.00;;;;;;;;5074390;27;46509;-59
2023/03/20 01:42:47;;;;;;;;;19.50;19.25;;;;;;;;5065897;27;45485;-57
2023/03/20 01:45:17;;;;;;;;;18.00;17.25;;;;;;;;5068206;28;45430;-57
2023/03/20 01:47:42;;;;;;;;;21.25;20.00;;;;;;;;5075056;27;45589;-57
2023/03/20 01:50:13;;;;;;;;;19.25;19.25;;;;;;;;5066815;27;45462;-57
2023/03/20 01:52:38;;;;;;;;;15.50;14.75;;;;;;;;5060171;28;45454;-57
2023/03/20 01:55:04;;;;;;;;;18.00;17.50;;;;;;;;5075173;28;45513;-57
2023/03/20 01:57:29;;;;;;;;;18.75;15.50;;;;;;;;5073960;28;45543;-55
2023/03/20 02:00:01;;;;;;;;;19.75;19.75;;;;;;;;5073107;27;45506;-57
2023/03/20 02:02:28;;;;;;;;;20.25;18.50;;;;;;;;5061316;27;45902;-57
2023/03/20 02:04:56;;;;;;;;;19.25;18.25;;;;;;;;5060797;27;45546;-57
2023/03/20 02:07:22;;;;;;;;;18.75;17.75;;;;;;;;5049084;27;45551;-57
2023/03/20 02:09:48;;;;;;;;;19.75;17.25;;;;;;;;5063942;27;45495;-57
2023/03/20 02:12:14;;;;;;;;;21.75;21.25;;;;;;;;5069159;28;45443;-57
2023/03/20 02:14:39;;;;;;;;;17.00;17.00;;;;;;;;5074331;27;45537;-57
2023/03/20 02:17:07;;;;;;;;;22.00;20.50;;;;;;;;5074318;27;45536;-57
2023/03/20 02:19:47;;;;;;;;;18.00;18.00;;;;;;;;5074356;27;45588;-57
2023/03/20 02:22:38;;;;;;;;;21.00;20.00;;;;;;;;5068984;28;45402;-57
2023/03/20 02:25:22;;;;;;;;;19.00;19.00;;;;;;;;5074321;27;45591;-60
2023/03/20 02:28:02;;;;;;;;;15.75;15.00;;;;;;;;5049005;27;45481;-56
2023/03/20 02:30:41;;;;;;;;;20.50;20.50;;;;;;;;5067619;27;46298;-57
2023/03/20 02:33:25;;;;;;;;;16.75;16.75;;;;;;;;5066285;27;45520;-57
2023/03/20 02:36:09;;;;;;;;;21.00;18.50;;;;;;;;5069331;27;45446;-57
2023/03/20 02:38:34;;;;;;;;;16.50;15.00;;;;;;;;5074181;27;45493;-57
2023/03/20 02:41:22;;;;;;;;;17.50;15.00;;;;;;;;5044545;28;46225;-56
2023/03/20 02:43:56;;;;;;;;;13.00;13.00;;;;;;;;5066080;27;45798;-56
2023/03/20 02:46:40;;;;;;;;;17.75;16.50;;;;;;;;5046472;28;45495;-57
2023/03/20 02:49:28;;;;;;;;;16.75;16.75;;;;;;;;5069811;27;45607;-58
2023/03/20 02:52:03;;;;;;;;;14.50;14.00;;;;;;;;5038266;27;45596;-57
2023/03/20 02:54:28;;;;;;;;;16.75;13.50;;;;;;;;5071102;28;45474;-58
2023/03/20 02:57:12;;;;;;;;;16.75;14.25;;;;;;;;5054813;28;45816;-58
2023/03/20 02:59:43;;;;;;;;;9.00;6.75;;;;;;;;5071170;27;45631;-57
2023/03/20 03:02:12;;;;;;;;;14.25;12.75;;;;;;;;5040636;28;46000;-58
2023/03/20 03:04:40;;;;;;;;;16.25;13.00;;;;;;;;5044374;28;45431;-57
2023/03/20 03:07:07;;;;;;;;;13.25;12.25;;;;;;;;5072623;28;45453;-58
2023/03/20 03:09:45;;;;;;;;;13.50;13.50;;;;;;;;5073288;27;45589;-58
2023/03/20 03:12:20;;;;;;;;;18.00;15.75;;;;;;;;5053317;27;46104;-58
2023/03/20 03:14:47;;;;;;;;;14.75;14.75;;;;;;;;5065850;27;45523;-58
2023/03/20 03:17:14;;;;;;;;;13.00;12.75;;;;;;;;5073662;27;45616;-57
2023/03/20 03:19:42;;;;;;;;;21.00;19.75;;;;;;;;5073567;27;45498;-58
2023/03/20 03:22:07;;;;;;;;;19.25;18.75;;;;;;;;5068085;27;45568;-58
2023/03/20 03:24:37;;;;;;;;;16.25;16.25;;;;;;;;5053216;28;45503;-58
2023/03/20 03:27:06;;;;;;;;;19.50;17.50;;;;;;;;5073780;27;45522;-58
2023/03/20 03:29:34;;;;;;;;;13.25;13.25;;;;;;;;5069369;27;45438;-56
2023/03/20 03:32:01;;;;;;;;;18.50;16.00;;;;;;;;5060859;27;45454;-57
2023/03/20 03:34:28;;;;;;;;;16.00;16.00;;;;;;;;5045609;28;45586;-58
2023/03/20 03:36:59;;;;;;;;;17.00;15.00;;;;;;;;5073511;27;45626;-57
2023/03/20 03:39:24;;;;;;;;;16.00;16.00;;;;;;;;5069847;28;45492;-58
2023/03/20 03:41:52;;;;;;;;;16.75;16.00;;;;;;;;5063072;27;46305;-58
2023/03/20 03:44:36;;;;;;;;;19.00;18.00;;;;;;;;5041632;28;45550;-58
2023/03/20 03:47:24;;;;;;;;;10.75;10.75;;;;;;;;5062006;27;45505;-57
2023/03/20 03:49:57;;;;;;;;;19.25;19.25;;;;;;;;5048252;28;45511;-57
2023/03/20 03:52:23;;;;;;;;;15.00;15.00;;;;;;;;5049872;28;47958;-56
2023/03/20 03:54:55;;;;;;;;;19.75;16.75;;;;;;;;5062188;28;45485;-57
2023/03/20 03:57:27;;;;;;;;;16.00;14.25;;;;;;;;5071857;27;45808;-58
2023/03/20 03:59:54;;;;;;;;;14.75;13.00;;;;;;;;5042923;28;45443;-58
2023/03/20 04:02:21;;;;;;;;;13.75;13.00;;;;;;;;5065109;27;45634;-58
2023/03/20 04:04:48;;;;;;;;;16.25;14.00;;;;;;;;5063048;27;45542;-58
2023/03/20 04:07:14;;;;;;;;;13.50;13.25;;;;;;;;5072897;28;45530;-58
2023/03/20 04:09:39;;;;;;;;;13.75;13.75;;;;;;;;5062634;28;45692;-58
2023/03/20 04:12:05;;;;;;;;;15.75;13.00;;;;;;;;5067988;27;45524;-57
2023/03/20 04:14:31;;;;;;;;;13.00;12.00;;;;;;;;5073039;27;45443;-58
2023/03/20 04:16:56;;;;;;;;;13.25;12.00;;;;;;;;5061971;28;45522;-58
2023/03/20 04:19:21;;;;;;;;;13.50;13.50;;;;;;;;5058572;27;45502;-58
2023/03/20 04:21:46;;;;;;;;;12.25;12.25;;;;;;;;5072835;27;45631;-58
2023/03/20 04:24:12;;;;;;;;;16.75;15.75;;;;;;;;5071816;27;45537;-58
2023/03/20 04:26:38;;;;;;;;;11.00;11.00;;;;;;;;5076993;27;45490;-58
2023/03/20 04:29:04;;;;;;;;;14.50;14.50;;;;;;;;5064400;27;45509;-58
2023/03/20 04:31:29;;;;;;;;;16.25;12.25;;;;;;;;5056968;27;46155;-58
2023/03/20 04:33:54;;;;;;;;;15.75;12.75;;;;;;;;5067459;28;45617;-58
2023/03/20 04:36:20;;;;;;;;;17.00;16.00;;;;;;;;5076539;27;45471;-58
2023/03/20 04:38:45;;;;;;;;;16.25;16.25;;;;;;;;5067508;27;45367;-58
2023/03/20 04:41:10;;;;;;;;;14.25;14.25;;;;;;;;5059959;28;45821;-58
2023/03/20 04:43:35;;;;;;;;;16.00;16.00;;;;;;;;5066242;27;45465;-58
2023/03/20 04:46:01;;;;;;;;;16.75;14.25;;;;;;;;5064316;28;45352;-59
2023/03/20 04:48:26;;;;;;;;;14.75;12.50;;;;;;;;5072759;27;45367;-58
2023/03/20 04:50:52;;;;;;;;;13.75;13.75;;;;;;;;5066577;27;45476;-58
2023/03/20 04:53:17;;;;;;;;;16.75;15.75;;;;;;;;5056253;28;45549;-58
2023/03/20 04:55:43;;;;;;;;;15.25;13.25;;;;;;;;5074633;28;45579;-58
2023/03/20 04:58:08;;;;;;;;;15.00;15.00;;;;;;;;5073923;27;45469;-58
2023/03/20 05:00:34;;;;;;;;;13.75;12.25;;;;;;;;5069825;27;45891;-57
2023/03/20 05:02:59;;;;;;;;;12.25;12.00;;;;;;;;5055907;28;45446;-58
2023/03/20 05:05:24;;;;;;;;;17.25;13.50;;;;;;;;5055295;28;45865;-57
2023/03/20 05:07:50;;;;;;;;;13.00;13.00;;;;;;;;5073666;27;45522;-58
2023/03/20 05:10:15;;;;;;;;;18.25;17.25;;;;;;;;5071055;27;45464;-56
2023/03/20 05:12:41;;;;;;;;;12.75;12.75;;;;;;;;5072606;27;45502;-58
2023/03/20 05:15:06;;;;;;;;;18.00;15.00;;;;;;;;5076021;27;45467;-58
2023/03/20 05:17:31;;;;;;;;;14.75;14.75;;;;;;;;5075893;27;45544;-58
2023/03/20 05:19:56;;;;;;;;;17.75;13.25;;;;;;;;5067536;27;46315;-58
2023/03/20 05:22:22;;;;;;;;;16.75;16.00;;;;;;;;5072742;27;45556;-58
2023/03/20 05:24:47;;;;;;;;;18.25;17.25;;;;;;;;5076045;27;45403;-58
2023/03/20 05:27:12;;;;;;;;;13.00;13.00;;;;;;;;5069744;28;45652;-58
2023/03/20 05:29:37;;;;;;;;;12.25;12.25;;;;;;;;5059036;27;46009;-58
2023/03/20 05:32:02;;;;;;;;;17.00;16.75;;;;;;;;5057201;28;45566;-58
2023/03/20 05:34:28;;;;;;;;;12.75;11.50;;;;;;;;5074229;27;45577;-58
2023/03/20 05:36:53;;;;;;;;;16.00;16.00;;;;;;;;5068971;28;45570;-58
2023/03/20 05:39:18;;;;;;;;;18.50;16.75;;;;;;;;5070662;27;45510;-58
2023/03/20 05:41:43;;;;;;;;;16.00;16.00;;;;;;;;5069371;27;45427;-58
2023/03/20 05:44:08;;;;;;;;;16.75;16.00;;;;;;;;5069267;28;45433;-58
2023/03/20 05:46:34;;;;;;;;;13.50;13.25;;;;;;;;5075534;27;45466;-58
2023/03/20 05:49:00;;;;;;;;;19.50;14.00;;;;;;;;5075402;27;45464;-58
2023/03/20 05:51:26;;;;;;;;;13.50;13.50;;;;;;;;5059904;28;45403;-58
2023/03/20 05:53:51;;;;;;;;;16.00;12.50;;;;;;;;5053283;28;45558;-58
2023/03/20 05:56:16;;;;;;;;;17.75;13.75;;;;;;;;5067475;27;45375;-58
2023/03/20 05:58:41;;;;;;;;;13.25;13.25;;;;;;;;5069655;27;45564;-58
2023/03/20 06:01:07;;;;;;;;;12.25;12.25;;;;;;;;5075152;27;45537;-58
2023/03/20 06:03:32;;;;;;;;;13.00;13.00;;;;;;;;5057404;28;45477;-58
2023/03/20 06:05:57;;;;;;;;;12.25;12.00;;;;;;;;5070352;27;45948;-58
2023/03/20 06:08:22;;;;;;;;;12.75;12.75;;;;;;;;5068803;27;46108;-59
2023/03/20 06:10:51;;;;;;;;;15.75;15.75;;;;;;;;5074933;27;45469;-58
2023/03/20 06:13:16;;;;;;;;;11.00;11.00;;;;;;;;5045777;27;45501;-58
2023/03/20 06:15:41;;;;;;;;;10.50;9.00;;;;;;;;5070984;27;45465;-57
2023/03/20 06:18:06;;;;;;;;;11.25;11.25;;;;;;;;5074632;27;46626;-57
2023/03/20 06:20:31;;;;;;;;;11.25;11.25;;;;;;;;5067852;28;45606;-58
2023/03/20 06:22:57;;;;;;;;;9.50;9.50;;;;;;;;5066497;27;45530;-58
2023/03/20 06:25:22;;;;;;;;;8.00;8.00;;;;;;;;5041291;28;45774;-58
2023/03/20 06:27:47;;;;;;;;;15.50;14.50;;;;;;;;5070401;27;45591;-57
2023/03/20 06:30:13;;;;;;;;;11.00;10.75;;;;;;;;5066070;28;45594;-57
2023/03/20 06:32:38;;;;;;;;;10.00;10.00;;;;;;;;5047158;28;45657;-57
2023/03/20 06:35:08;;;;;;;;;11.00;11.00;;;;;;;;5058566;27;45511;-58
2023/03/20 06:37:33;;;;;;;;;11.00;11.00;;;;;;;;5070223;27;46082;-57
2023/03/20 06:39:58;;;;;;;;;12.00;10.50;;;;;;;;5064113;28;45433;-56
2023/03/20 06:42:24;;;;;;;;;12.00;11.00;;;;;;;;5058435;28;45533;-58
2023/03/20 06:44:49;;;;;;;;;12.00;11.00;;;;;;;;5032382;28;45564;-58
2023/03/20 06:47:15;;;;;;;;;10.50;10.00;;;;;;;;5046511;28;47015;-58
2023/03/20 06:49:40;;;;;;;;;12.00;10.25;;;;;;;;5058254;28;45613;-58
2023/03/20 06:52:06;;;;;;;;;10.00;10.00;;;;;;;;5066494;27;45577;-58
2023/03/20 06:54:31;;;;;;;;;9.25;8.50;;;;;;;;5064705;28;45704;-58
2023/03/20 06:56:56;;;;;;;;;9.50;8.75;;;;;;;;5052345;27;45656;-58
2023/03/20 06:59:22;;;;;;;;;8.75;8.75;;;;;;;;5073113;27;45461;-58
2023/03/20 07:01:47;;;;;;;;;10.33;9.33;;;;;;;;5073173;27;45487;-58
2023/03/20 07:04:13;;;;;;;;;8.50;8.50;;;;;;;;5063157;28;45552;-58
2023/03/20 07:06:38;;;;;;;;;10.00;9.00;;;;;;;;5053755;27;45663;-58
2023/03/20 07:09:04;;;;;;;;;10.67;9.33;;;;;;;;5055362;28;45486;-59
2023/03/20 07:11:29;;;;;;;;;11.25;9.25;;;;;;;;5040968;28;45486;-59
2023/03/20 07:13:55;;;;;;;;;9.75;9.25;;;;;;;;5057504;28;45582;-59
2023/03/20 07:16:21;;;;;;;;;10.75;10.00;;;;;;;;5052818;28;45509;-59
2023/03/20 07:18:46;;;;;;;;;9.50;9.50;;;;;;;;5052783;28;45648;-58
2023/03/20 07:21:16;;;;;;;;;10.00;10.00;;;;;;;;5073100;28;45430;-54
2023/03/20 07:23:41;;;;;;;;;7.25;6.00;;;;;;;;5058187;27;45608;-59
2023/03/20 07:26:06;;;;;;;;;5.33;5.33;;;;;;;;5051284;28;46054;-59
2023/03/20 07:28:31;;;;;;;;;8.00;7.00;;;;;;;;5060915;27;45450;-61
2023/03/20 07:30:56;;;;;;;;;5.75;5.50;;;;;;;;5072669;28;45585;-60
2023/03/20 07:33:22;;;;;;;;;8.25;8.00;;;;;;;;5058888;27;45537;-59
2023/03/20 07:35:50;;;;;;;;;5.75;5.75;;;;;;;;5068510;28;46301;-59
2023/03/20 07:38:15;;;;;;;;;9.50;8.00;;;;;;;;5069875;28;45403;-59
2023/03/20 07:40:41;;;;;;;;;9.25;9.00;;;;;;;;5051579;28;45834;-59
2023/03/20 07:43:06;;;;;;;;;10.50;9.75;;;;;;;;5057875;28;45739;-59
2023/03/20 07:45:31;;;;;;;;;12.75;10.25;;;;;;;;5072484;27;46042;-59
2023/03/20 07:47:56;;;;;;;;;8.67;8.67;;;;;;;;5072527;28;45589;-60
2023/03/20 07:50:21;;;;;;;;;9.67;8.33;;;;;;;;5051143;28;45364;-59
2023/03/20 07:52:47;;;;;;;;;13.75;10.00;;;;;;;;5064123;28;45427;-59
2023/03/20 07:55:13;;;;;;;;;9.25;8.75;;;;;;;;5072196;27;46151;-60
2023/03/20 07:57:38;;;;;;;;;12.00;11.75;;;;;;;;5075593;27;45542;-60
2023/03/20 08:00:04;;;;;;;;;13.50;13.25;;;;;;;;5059628;27;45594;-60
2023/03/20 08:02:31;;;;;;;;;10.25;10.25;;;;;;;;5074900;27;45565;-60
2023/03/20 08:04:56;;;;;;;;;11.00;10.00;;;;;;;;5075965;27;46220;-59
2023/03/20 08:07:21;;;;;;;;;9.67;9.67;;;;;;;;5057277;28;45458;-59
2023/03/20 08:09:46;;;;;;;;;9.33;9.33;;;;;;;;5065276;27;45490;-59
2023/03/20 08:12:12;;;;;;;;;11.50;10.00;;;;;;;;5070236;27;45712;-60
2023/03/20 08:14:38;;;;;;;;;12.50;11.00;;;;;;;;5075505;27;45946;-59
2023/03/20 08:17:03;;;;;;;;;12.00;10.33;;;;;;;;5075445;27;45633;-60
2023/03/20 08:19:28;;;;;;;;;11.67;9.00;;;;;;;;5072029;27;45490;-60
2023/03/20 08:21:54;;;;;;;;;12.33;10.67;;;;;;;;5068803;27;45528;-60
2023/03/20 08:24:19;;;;;;;;;17.25;17.25;;;;;;;;5075318;27;45520;-59
2023/03/20 08:26:45;;;;;;;;;25.75;24.25;;;;;;;;5075521;27;45434;-60
2023/03/20 08:29:11;;;;;;;;;16.50;14.50;;;;;;;;5075473;27;45480;-60
2023/03/20 08:31:36;;;;;;;;;10.00;9.67;;;;;;;;5044138;28;45702;-60
2023/03/20 08:34:01;;;;;;;;;19.75;19.25;;;;;;;;5064771;27;46092;-60
2023/03/20 08:36:26;;;;;;;;;15.00;12.33;;;;;;;;5075158;27;45644;-60
2023/03/20 08:38:52;;;;;;;;;13.00;10.33;;;;;;;;5075184;27;45502;-60
2023/03/20 08:41:17;;;;;;;;;13.50;12.25;;;;;;;;5062362;27;45538;-60
2023/03/20 08:43:42;;;;;;;;;16.00;12.50;;;;;;;;5075310;27;46128;-59
2023/03/20 08:46:08;;;;;;;;;12.25;12.25;;;;;;;;5056449;28;45442;-59
2023/03/20 08:48:33;;;;;;;;;13.00;13.00;;;;;;;;5070709;27;45454;-59
2023/03/20 08:50:58;;;;;;;;;10.50;10.00;;;;;;;;5064516;27;45497;-59
2023/03/20 08:53:24;;;;;;;;;11.00;9.00;;;;;;;;5074789;27;45402;-60
2023/03/20 08:55:49;;;;;;;;;18.00;18.00;;;;;;;;5074782;27;45462;-60
2023/03/20 08:58:15;;;;;;;;;12.00;10.00;;;;;;;;5074795;27;45490;-59
2023/03/20 09:00:41;;;;;;;;;9.00;9.00;;;;;;;;5069099;27;45550;-59
2023/03/20 09:03:06;;;;;;;;;11.00;11.00;;;;;;;;5066653;27;45867;-59
2023/03/20 09:05:31;;;;;;;;;19.00;17.50;;;;;;;;5072978;27;45489;-60
2023/03/20 09:07:56;;;;;;;;;10.00;9.75;;;;;;;;5065056;27;45463;-59
2023/03/20 09:10:22;;;;;;;;;11.00;11.00;;;;;;;;5074899;27;45548;-59
2023/03/20 09:12:47;;;;;;;;;11.33;10.67;;;;;;;;5074996;27;45426;-60
2023/03/20 09:15:12;;;;;;;;;9.33;9.33;;;;;;;;5074816;27;45522;-60
2023/03/20 09:17:37;;;;;;;;;17.75;17.00;;;;;;;;5065534;27;45969;-60
2023/03/20 09:20:04;;;;;;;;;11.00;9.67;;;;;;;;5074736;27;45427;-60
2023/03/20 09:22:29;;;;;;;;;20.75;19.75;;;;;;;;5074227;27;46643;-59
2023/03/20 09:24:55;;;;;;;;;18.50;17.00;;;;;;;;5066111;27;45934;-59
2023/03/20 09:27:20;;;;;;;;;12.00;12.00;;;;;;;;5064474;28;45526;-60
2023/03/20 09:29:45;;;;;;;;;11.67;9.00;;;;;;;;5043835;27;45401;-60
2023/03/20 09:32:11;;;;;;;;;11.67;9.33;;;;;;;;5073392;27;46019;-60
2023/03/20 09:34:37;;;;;;;;;15.67;14.67;;;;;;;;5028536;27;45601;-59
2023/03/20 09:37:02;;;;;;;;;13.67;12.00;;;;;;;;5074632;27;45518;-59
2023/03/20 09:39:28;;;;;;;;;11.00;11.00;;;;;;;;5060432;27;45649;-59
2023/03/20 09:41:54;;;;;;;;;10.33;10.33;;;;;;;;5074355;27;45560;-60
2023/03/20 09:44:31;;;;;;;;;13.33;9.67;;;;;;;;5058381;27;45494;-60
2023/03/20 09:46:56;;;;;;;;;15.67;11.33;;;;;;;;5074274;27;45521;-59
2023/03/20 09:49:40;;;;;;;;;9.67;9.00;;;;;;;;5062622;27;45700;-60
2023/03/20 09:52:32;;;;;;;;;12.33;10.33;;;;;;;;5073796;27;46141;-59
2023/03/20 09:55:04;;;;;;;;;7.33;7.33;;;;;;;;5049426;28;45508;-60
2023/03/20 09:57:39;;;;;;;;;19.00;19.00;;;;;;;;5074557;27;45442;-60
2023/03/20 10:00:09;;;;;;;;;7.67;7.67;;;;;;;;5073913;27;45476;-60
2023/03/20 10:02:43;;;;;;;;;8.00;8.00;;;;;;;;5073734;27;46024;-59
2023/03/20 10:05:20;;;;;;;;;4.00;4.00;;;;;;;;5060815;28;45588;-60
2023/03/20 10:07:46;;;;;;;;;4.33;4.33;;;;;;;;5067350;28;45605;-60
2023/03/20 10:10:14;;;;;;;;;4.00;4.00;;;;;;;;5067574;28;45472;-59
2023/03/20 10:12:55;;;;;;;;;4.00;3.00;;;;;;;;5073375;27;46015;-59
2023/03/20 10:15:34;;;;;;;;;4.33;4.00;;;;;;;;5073755;28;45506;-59
2023/03/20 10:18:18;;;;;;;;;3.00;3.00;;;;;;;;5068033;27;45444;-59
2023/03/20 10:21:02;;;;;;;;;3.00;3.00;;;;;;;;5071332;27;45721;-60
2023/03/20 10:23:52;;;;;;;;;2.00;2.00;;;;;;;;5073564;27;45994;-60
2023/03/20 10:26:20;;;;;;;;;2.00;2.00;;;;;;;;5048395;28;45510;-60
2023/03/20 10:28:59;;;;;;;;;3.67;2.00;;;;;;;;5062566;28;45447;-60
2023/03/20 10:31:24;;;;;;;;;5.00;2.00;;;;;;;;5041602;28;45661;-59
2023/03/20 10:33:55;;;;;;;;;2.33;2.00;;;;;;;;5066855;27;45607;-60
2023/03/20 10:36:20;;;;;;;;;4.00;4.00;;;;;;;;5045385;28;45564;-60
2023/03/20 10:38:57;;;;;;;;;3.67;2.33;;;;;;;;5073459;27;46186;-59
2023/03/20 10:41:27;;;;;;;;;3.00;3.00;;;;;;;;5070460;27;45604;-60
2023/03/20 10:43:52;;;;;;;;;2.67;2.67;;;;;;;;5046934;28;45683;-59
2023/03/20 10:46:44;;;;;;;;;4.33;4.00;;;;;;;;5058038;27;45508;-60
2023/03/20 10:49:15;;;;;;;;;3.00;3.00;;;;;;;;5060414;28;45482;-59
2023/03/20 10:51:40;;;;;;;;;2.67;2.67;;;;;;;;5048132;27;45545;-60
2023/03/20 10:54:11;;;;;;;;;3.67;3.67;;;;;;;;5072669;27;46259;-59
2023/03/20 10:56:36;;;;;;;;;5.00;3.67;;;;;;;;5073153;27;45561;-60
2023/03/20 10:59:05;;;;;;;;;3.67;3.67;;;;;;;;5072833;27;45593;-59
2023/03/20 11:01:30;;;;;;;;;4.00;4.00;;;;;;;;5069498;27;45882;-60
2023/03/20 11:03:55;;;;;;;;;5.00;3.33;;;;;;;;5071824;27;46039;-59
2023/03/20 11:06:27;;;;;;;;;5.67;4.67;;;;;;;;5072834;27;45450;-59
2023/03/20 11:08:52;;;;;;;;;5.33;4.33;;;;;;;;5073182;27;45450;-60
2023/03/20 11:11:25;;;;;;;;;1.00;1.00;;;;;;;;5071107;27;45489;-60
2023/03/20 11:13:51;;;;;;;;;2.67;2.67;;;;;;;;5069581;27;46006;-59
2023/03/20 11:16:20;;;;;;;;;4.00;4.00;;;;;;;;5072780;28;45524;-59
2023/03/20 11:18:48;;;;;;;;;11.00;7.33;;;;;;;;5062184;28;45532;-59
2023/03/20 11:21:18;;;;;;;;;3.33;3.33;;;;;;;;5072710;27;45539;-58
2023/03/20 11:23:43;;;;;;;;;4.67;3.00;;;;;;;;5072052;27;45971;-59
2023/03/20 11:26:16;;;;;;;;;4.00;4.00;;;;;;;;5072382;27;45509;-59
2023/03/20 11:28:56;;;;;;;;;6.00;6.00;;;;;;;;5063580;27;45562;-58
2023/03/20 11:31:29;;;;;;;;;3.00;3.00;;;;;;;;5039921;28;45642;-58
2023/03/20 11:34:10;;;;;;;;;9.00;6.67;;;;;;;;5066134;27;45500;-60
2023/03/20 11:36:38;;;;;;;;;5.67;5.67;;;;;;;;5069829;28;45625;-60
2023/03/20 11:39:05;;;;;;;;;4.33;4.00;;;;;;;;5066647;28;45602;-61
2023/03/20 11:41:30;;;;;;;;;3.00;3.00;;;;;;;;5072459;27;45572;-62
2023/03/20 11:43:55;;;;;;;;;5.00;5.00;;;;;;;;5072190;27;45598;-60
2023/03/20 11:46:24;;;;;;;;;3.33;3.00;;;;;;;;5072087;28;45556;-60
2023/03/20 11:49:23;;;;;;;;;5.00;5.00;;;;;;;;5051292;28;45407;-60
2023/03/20 11:51:49;;;;;;;;;8.33;8.33;;;;;;;;5028845;28;45552;-60
2023/03/20 11:54:22;;;;;;;;;4.00;4.00;;;;;;;;5071589;28;46123;-60
2023/03/20 11:56:55;;;;;;;;;5.67;5.67;;;;;;;;5068853;28;45509;-60
2023/03/20 11:59:21;;;;;;;;;6.00;4.00;;;;;;;;5043271;28;45604;-60
2023/03/20 12:01:51;;;;;;;;;6.33;5.00;;;;;;;;5071677;27;45653;-60
2023/03/20 12:04:17;;;;;;;;;13.67;9.33;;;;;;;;5072152;28;45781;-60
2023/03/20 12:06:42;;;;;;;;;3.67;3.67;;;;;;;;5069872;27;45562;-60
2023/03/20 12:09:25;;;;;;;;;7.33;7.00;;;;;;;;5071808;27;45492;-59
2023/03/20 12:11:54;;;;;;;;;3.67;3.67;;;;;;;;5072041;27;45541;-59
2023/03/20 12:14:25;;;;;;;;;5.00;5.00;;;;;;;;5052447;28;46103;-60
2023/03/20 12:16:54;;;;;;;;;6.00;5.00;;;;;;;;5058413;28;45351;-59
2023/03/20 12:19:22;;;;;;;;;2.00;2.00;;;;;;;;5040770;28;45352;-59
2023/03/20 12:22:08;;;;;;;;;8.33;6.00;;;;;;;;5068043;27;45636;-59
2023/03/20 12:24:34;;;;;;;;;11.67;7.67;;;;;;;;5037234;28;45459;-59
2023/03/20 12:27:10;;;;;;;;;5.00;4.00;;;;;;;;5062808;28;45450;-60
2023/03/20 12:29:45;;;;;;;;;5.00;4.67;;;;;;;;5048914;27;45524;-60
2023/03/20 12:32:27;;;;;;;;;14.67;12.00;;;;;;;;5055691;28;45545;-59
2023/03/20 12:34:58;;;;;;;;;7.67;5.00;;;;;;;;5053143;27;45518;-59
2023/03/20 12:37:23;;;;;;;;;4.67;4.67;;;;;;;;5050378;28;45512;-59
2023/03/20 12:39:49;;;;;;;;;6.00;5.67;;;;;;;;5054276;28;45526;-59
2023/03/20 12:42:33;;;;;;;;;5.00;5.00;;;;;;;;5071631;27;45555;-59
2023/03/20 12:45:11;;;;;;;;;6.00;6.00;;;;;;;;5056956;27;46391;-59
2023/03/20 12:47:38;;;;;;;;;6.00;6.00;;;;;;;;5075057;27;45768;-59
2023/03/20 12:50:13;;;;;;;;;4.33;4.33;;;;;;;;5048310;28;45478;-60
2023/03/20 12:52:50;;;;;;;;;5.67;4.00;;;;;;;;5047801;28;45526;-60
2023/03/20 12:55:15;;;;;;;;;6.67;6.33;;;;;;;;5062901;27;46199;-62
2023/03/20 12:57:44;;;;;;;;;5.67;4.33;;;;;;;;5074129;27;45628;-62
2023/03/20 13:00:29;;;;;;;;;4.00;4.00;;;;;;;;5075104;27;45623;-62
2023/03/20 13:03:01;;;;;;;;;7.33;5.00;;;;;;;;5069580;27;45574;-62
2023/03/20 13:05:48;;;;;;;;;7.00;7.00;;;;;;;;5074843;27;45613;-62
2023/03/20 13:08:13;;;;;;;;;4.00;4.00;;;;;;;;5075102;28;45490;-62
2023/03/20 13:10:40;;;;;;;;;7.00;3.67;;;;;;;;5074841;27;46045;-62
2023/03/20 13:13:23;;;;;;;;;5.00;5.00;;;;;;;;5068381;27;45494;-62
2023/03/20 13:15:54;;;;;;;;;5.33;3.00;;;;;;;;5074362;27;45359;-62
2023/03/20 13:18:24;;;;;;;;;3.67;3.67;;;;;;;;5074732;27;45427;-62
2023/03/20 13:20:51;;;;;;;;;5.33;5.33;;;;;;;;5074845;27;45499;-61
2023/03/20 13:23:19;;;;;;;;;4.00;4.00;;;;;;;;5065493;27;45625;-61
2023/03/20 13:25:59;;;;;;;;;4.00;4.00;;;;;;;;5074517;28;45790;-61
2023/03/20 13:28:25;;;;;;;;;4.00;4.00;;;;;;;;5046113;28;46051;-61
2023/03/20 13:30:57;;;;;;;;;5.00;5.00;;;;;;;;5063201;27;46263;-61
2023/03/20 13:33:43;;;;;;;;;6.67;6.67;;;;;;;;5062522;28;45535;-62
2023/03/20 13:36:17;;;;;;;;;7.33;5.00;;;;;;;;5074189;28;45514;-61
2023/03/20 13:38:47;;;;;;;;;8.00;8.00;;;;;;;;5065545;27;45538;-61
2023/03/20 13:41:12;;;;;;;;;6.00;6.00;;;;;;;;5074253;27;45426;-61
2023/03/20 13:43:53;;;;;;;;;5.00;4.00;;;;;;;;5074425;27;45419;-61
2023/03/20 13:46:21;;;;;;;;;5.00;3.00;;;;;;;;5074285;27;46288;-61
2023/03/20 13:48:46;;;;;;;;;7.33;6.33;;;;;;;;5039373;28;45498;-61
2023/03/20 13:51:11;;;;;;;;;4.67;4.00;;;;;;;;5066859;28;45452;-61
2023/03/20 13:53:42;;;;;;;;;6.00;5.33;;;;;;;;5071313;28;45590;-62
2023/03/20 13:56:34;;;;;;;;;7.33;5.33;;;;;;;;5055974;27;45695;-61
2023/03/20 13:59:17;;;;;;;;;7.33;6.33;;;;;;;;5073962;27;45505;-61
2023/03/20 14:01:58;;;;;;;;;12.00;10.33;;;;;;;;5073999;27;45418;-61
2023/03/20 14:04:25;;;;;;;;;4.67;4.67;;;;;;;;5066493;27;46139;-61
2023/03/20 14:06:52;;;;;;;;;7.00;6.00;;;;;;;;5068999;27;46207;-61
2023/03/20 14:09:29;;;;;;;;;5.67;4.67;;;;;;;;5073985;28;45556;-61
2023/03/20 14:11:57;;;;;;;;;7.67;6.67;;;;;;;;5073881;27;45485;-62
2023/03/20 14:14:25;;;;;;;;;7.67;7.00;;;;;;;;5066612;27;45510;-62
2023/03/20 14:16:59;;;;;;;;;4.67;4.67;;;;;;;;5064604;27;46022;-62
2023/03/20 14:19:25;;;;;;;;;6.33;5.67;;;;;;;;5028951;28;46427;-62
2023/03/20 14:21:53;;;;;;;;;5.67;5.67;;;;;;;;5074079;28;45441;-62
2023/03/20 14:24:19;;;;;;;;;5.00;4.00;;;;;;;;5067086;27;45664;-62
2023/03/20 14:26:59;;;;;;;;;5.67;4.00;;;;;;;;5064679;27;46034;-61
2023/03/20 14:29:32;;;;;;;;;8.00;6.00;;;;;;;;5073459;28;45373;-62
2023/03/20 14:32:12;;;;;;;;;6.00;6.00;;;;;;;;5073394;27;45572;-61
2023/03/20 14:34:51;;;;;;;;;6.33;6.33;;;;;;;;5046510;28;45642;-63
2023/03/20 14:37:46;;;;;;;;;6.00;6.00;;;;;;;;5058568;28;45627;-61